sensor_id;sensor_type;location;lat;lon;timestamp;temperature;humidity
43227;DHT22;28839;52.404;9.808;2024-01-16T00:04:23;1.10;99.90
43227;DHT22;28839;52.404;9.808;2024-01-16T00:11:39;1.10;99.90
43227;DHT22;28839;52.404;9.808;2024-01-16T00:18:34;1.10;99.90
43227;DHT22;28839;52.404;9.808;2024-01-16T00:25:28;1.00;99.90
43227;DHT22;28839;52.404;9.808;2024-01-16T00:32:23;1.10;99.90
43227;DHT22;28839;52.404;9.808;2024-01-16T00:39:16;1.00;99.90
43227;DHT22;28839;52.404;9.808;2024-01-16T00:46:10;1.00;99.90
43227;DHT22;28839;52.404;9.808;2024-01-16T00:53:05;1.00;99.90
43227;DHT22;28839;52.404;9.808;2024-01-16T00:59:59;1.00;99.90
43227;DHT22;28839;52.404;9.808;2024-01-16T01:06:53;1.00;99.90
43227;DHT22;28839;52.404;9.808;2024-01-16T01:13:48;1.00;99.90
43227;DHT22;28839;52.404;9.808;2024-01-16T01:20:42;0.90;99.90
43227;DHT22;28839;52.404;9.808;2024-01-16T01:27:36;1.00;99.90
43227;DHT22;28839;52.404;9.808;2024-01-16T01:34:31;0.90;99.90
43227;DHT22;28839;52.404;9.808;2024-01-16T01:41:25;0.90;99.90
43227;DHT22;28839;52.404;9.808;2024-01-16T01:48:19;0.90;99.90
43227;DHT22;28839;52.404;9.808;2024-01-16T01:55:14;0.80;99.90
43227;DHT22;28839;52.404;9.808;2024-01-16T02:02:08;0.80;99.90
43227;DHT22;28839;52.404;9.808;2024-01-16T02:09:02;0.80;99.90
43227;DHT22;28839;52.404;9.808;2024-01-16T02:16:00;0.80;99.90
43227;DHT22;28839;52.404;9.808;2024-01-16T02:22:56;0.80;99.90
43227;DHT22;28839;52.404;9.808;2024-01-16T02:29:52;0.80;99.90
43227;DHT22;28839;52.404;9.808;2024-01-16T02:36:46;0.70;99.90
43227;DHT22;28839;52.404;9.808;2024-01-16T02:43:40;0.70;99.90
43227;DHT22;28839;52.404;9.808;2024-01-16T02:50:35;0.60;99.90
43227;DHT22;28839;52.404;9.808;2024-01-16T02:57:29;0.50;99.90
43227;DHT22;28839;52.404;9.808;2024-01-16T03:04:23;0.60;99.90
43227;DHT22;28839;52.404;9.808;2024-01-16T03:11:18;0.50;99.90
43227;DHT22;28839;52.404;9.808;2024-01-16T03:18:12;0.50;99.90
43227;DHT22;28839;52.404;9.808;2024-01-16T03:25:07;0.50;99.90
43227;DHT22;28839;52.404;9.808;2024-01-16T03:32:03;0.50;99.90
43227;DHT22;28839;52.404;9.808;2024-01-16T03:38:56;0.50;99.90
43227;DHT22;28839;52.404;9.808;2024-01-16T03:45:50;0.30;99.90
43227;DHT22;28839;52.404;9.808;2024-01-16T03:52:45;0.30;99.90
43227;DHT22;28839;52.404;9.808;2024-01-16T03:59:39;0.30;99.90
43227;DHT22;28839;52.404;9.808;2024-01-16T04:06:33;0.20;99.90
43227;DHT22;28839;52.404;9.808;2024-01-16T04:13:28;0.20;99.90
43227;DHT22;28839;52.404;9.808;2024-01-16T04:20:22;0.20;99.90
43227;DHT22;28839;52.404;9.808;2024-01-16T04:27:15;0.10;99.90
43227;DHT22;28839;52.404;9.808;2024-01-16T04:34:10;0.10;99.90
43227;DHT22;28839;52.404;9.808;2024-01-16T04:41:04;0.10;99.90
43227;DHT22;28839;52.404;9.808;2024-01-16T04:47:58;0.10;99.90
43227;DHT22;28839;52.404;9.808;2024-01-16T04:54:53;0.20;99.90
43227;DHT22;28839;52.404;9.808;2024-01-16T05:01:47;0.10;99.90
43227;DHT22;28839;52.404;9.808;2024-01-16T05:08:41;0.10;99.90
43227;DHT22;28839;52.404;9.808;2024-01-16T05:15:36;0.10;99.90
43227;DHT22;28839;52.404;9.808;2024-01-16T05:22:30;0.00;99.90
43227;DHT22;28839;52.404;9.808;2024-01-16T05:29:23;0.00;99.90
43227;DHT22;28839;52.404;9.808;2024-01-16T05:36:18;0.00;99.90
43227;DHT22;28839;52.404;9.808;2024-01-16T05:43:13;-0.10;99.90
43227;DHT22;28839;52.404;9.808;2024-01-16T05:50:07;-0.10;99.90
43227;DHT22;28839;52.404;9.808;2024-01-16T05:57:02;-0.10;99.90
43227;DHT22;28839;52.404;9.808;2024-01-16T06:03:57;-0.20;99.90
43227;DHT22;28839;52.404;9.808;2024-01-16T06:10:50;-0.20;99.90
43227;DHT22;28839;52.404;9.808;2024-01-16T06:17:45;-0.20;99.90
43227;DHT22;28839;52.404;9.808;2024-01-16T06:24:39;-0.20;99.90
43227;DHT22;28839;52.404;9.808;2024-01-16T06:31:33;-0.10;99.90
43227;DHT22;28839;52.404;9.808;2024-01-16T06:38:28;-0.10;99.90
43227;DHT22;28839;52.404;9.808;2024-01-16T06:45:22;0.00;99.90
43227;DHT22;28839;52.404;9.808;2024-01-16T06:52:15;0.00;99.90
43227;DHT22;28839;52.404;9.808;2024-01-16T06:59:10;0.20;99.90
43227;DHT22;28839;52.404;9.808;2024-01-16T07:06:05;0.20;99.90
43227;DHT22;28839;52.404;9.808;2024-01-16T07:12:58;0.30;99.90
43227;DHT22;28839;52.404;9.808;2024-01-16T07:19:54;0.20;99.90
43227;DHT22;28839;52.404;9.808;2024-01-16T07:26:48;0.20;99.90
43227;DHT22;28839;52.404;9.808;2024-01-16T07:33:41;0.20;99.90
43227;DHT22;28839;52.404;9.808;2024-01-16T07:40:37;0.20;99.90
43227;DHT22;28839;52.404;9.808;2024-01-16T07:47:30;0.20;99.90
43227;DHT22;28839;52.404;9.808;2024-01-16T07:54:25;0.20;99.90
43227;DHT22;28839;52.404;9.808;2024-01-16T08:01:21;0.30;99.90
43227;DHT22;28839;52.404;9.808;2024-01-16T08:08:14;0.30;99.90
43227;DHT22;28839;52.404;9.808;2024-01-16T08:15:08;0.30;99.90
43227;DHT22;28839;52.404;9.808;2024-01-16T08:22:04;0.40;99.90
43227;DHT22;28839;52.404;9.808;2024-01-16T08:28:59;0.40;99.90
43227;DHT22;28839;52.404;9.808;2024-01-16T08:35:52;0.40;99.90
43227;DHT22;28839;52.404;9.808;2024-01-16T08:42:47;0.50;99.90
43227;DHT22;28839;52.404;9.808;2024-01-16T08:49:47;0.50;99.90
43227;DHT22;28839;52.404;9.808;2024-01-16T08:56:41;0.60;99.90
43227;DHT22;28839;52.404;9.808;2024-01-16T09:03:36;0.70;99.90
43227;DHT22;28839;52.404;9.808;2024-01-16T09:10:29;0.70;99.90
43227;DHT22;28839;52.404;9.808;2024-01-16T09:17:23;0.80;99.90
43227;DHT22;28839;52.404;9.808;2024-01-16T09:24:19;0.80;99.90
43227;DHT22;28839;52.404;9.808;2024-01-16T09:31:15;0.90;99.90
43227;DHT22;28839;52.404;9.808;2024-01-16T09:38:08;1.00;99.90
43227;DHT22;28839;52.404;9.808;2024-01-16T09:45:04;1.10;99.90
43227;DHT22;28839;52.404;9.808;2024-01-16T09:51:58;0.90;99.90
43227;DHT22;28839;52.404;9.808;2024-01-16T09:58:57;1.20;99.90
43227;DHT22;28839;52.404;9.808;2024-01-16T10:05:53;1.40;99.90
43227;DHT22;28839;52.404;9.808;2024-01-16T10:12:47;1.40;99.90
43227;DHT22;28839;52.404;9.808;2024-01-16T10:19:48;1.40;99.90
43227;DHT22;28839;52.404;9.808;2024-01-16T10:26:43;1.70;99.90
43227;DHT22;28839;52.404;9.808;2024-01-16T10:33:37;1.60;99.90
43227;DHT22;28839;52.404;9.808;2024-01-16T10:40:32;1.70;99.90
43227;DHT22;28839;52.404;9.808;2024-01-16T10:47:28;1.60;99.90
43227;DHT22;28839;52.404;9.808;2024-01-16T10:54:21;1.70;99.90
43227;DHT22;28839;52.404;9.808;2024-01-16T11:01:16;1.60;99.90
43227;DHT22;28839;52.404;9.808;2024-01-16T11:08:11;1.90;99.90
43227;DHT22;28839;52.404;9.808;2024-01-16T11:15:11;1.80;99.90
43227;DHT22;28839;52.404;9.808;2024-01-16T11:22:06;1.90;99.90
43227;DHT22;28839;52.404;9.808;2024-01-16T11:29:33;2.00;99.90
43227;DHT22;28839;52.404;9.808;2024-01-16T11:36:42;2.00;99.90
43227;DHT22;28839;52.404;9.808;2024-01-16T11:43:36;1.90;99.90
43227;DHT22;28839;52.404;9.808;2024-01-16T11:50:32;2.00;99.90
43227;DHT22;28839;52.404;9.808;2024-01-16T11:57:57;1.90;99.90
43227;DHT22;28839;52.404;9.808;2024-01-16T12:04:55;1.80;99.90
43227;DHT22;28839;52.404;9.808;2024-01-16T12:11:57;1.80;99.90
43227;DHT22;28839;52.404;9.808;2024-01-16T12:19:04;1.70;99.90
43227;DHT22;28839;52.404;9.808;2024-01-16T12:25:58;1.80;99.90
43227;DHT22;28839;52.404;9.808;2024-01-16T12:33:07;1.60;99.90
43227;DHT22;28839;52.404;9.808;2024-01-16T12:40:02;1.60;99.90
43227;DHT22;28839;52.404;9.808;2024-01-16T12:46:58;1.60;99.90
43227;DHT22;28839;52.404;9.808;2024-01-16T12:54:11;1.60;99.90
43227;DHT22;28839;52.404;9.808;2024-01-16T13:01:24;1.70;99.90
43227;DHT22;28839;52.404;9.808;2024-01-16T13:08:18;1.70;99.90
43227;DHT22;28839;52.404;9.808;2024-01-16T13:15:13;1.60;99.90
43227;DHT22;28839;52.404;9.808;2024-01-16T13:22:09;1.60;99.90
43227;DHT22;28839;52.404;9.808;2024-01-16T13:29:03;1.50;99.90
43227;DHT22;28839;52.404;9.808;2024-01-16T13:35:59;1.60;99.90
43227;DHT22;28839;52.404;9.808;2024-01-16T13:42:53;1.50;99.90
43227;DHT22;28839;52.404;9.808;2024-01-16T13:49:47;1.60;99.90
43227;DHT22;28839;52.404;9.808;2024-01-16T13:56:42;1.60;99.90
43227;DHT22;28839;52.404;9.808;2024-01-16T14:03:36;1.60;99.90
43227;DHT22;28839;52.404;9.808;2024-01-16T14:10:31;1.60;99.90
43227;DHT22;28839;52.404;9.808;2024-01-16T14:17:26;1.50;99.90
43227;DHT22;28839;52.404;9.808;2024-01-16T14:24:19;1.30;99.90
43227;DHT22;28839;52.404;9.808;2024-01-16T14:31:14;1.30;99.90
43227;DHT22;28839;52.404;9.808;2024-01-16T14:38:09;1.40;99.90
43227;DHT22;28839;52.404;9.808;2024-01-16T14:45:03;1.40;99.90
43227;DHT22;28839;52.404;9.808;2024-01-16T14:51:58;1.40;99.90
43227;DHT22;28839;52.404;9.808;2024-01-16T14:58:54;1.40;99.90
43227;DHT22;28839;52.404;9.808;2024-01-16T15:05:49;1.30;99.90
43227;DHT22;28839;52.404;9.808;2024-01-16T15:12:43;1.20;99.90
43227;DHT22;28839;52.404;9.808;2024-01-16T15:19:38;1.30;99.90
43227;DHT22;28839;52.404;9.808;2024-01-16T15:26:32;1.20;99.90
43227;DHT22;28839;52.404;9.808;2024-01-16T15:33:26;1.10;99.90
43227;DHT22;28839;52.404;9.808;2024-01-16T15:40:21;0.90;99.90
43227;DHT22;28839;52.404;9.808;2024-01-16T15:47:15;0.80;99.90
43227;DHT22;28839;52.404;9.808;2024-01-16T15:54:12;0.80;99.90
43227;DHT22;28839;52.404;9.808;2024-01-16T16:01:07;0.60;99.90
43227;DHT22;28839;52.404;9.808;2024-01-16T16:08:01;0.40;99.90
43227;DHT22;28839;52.404;9.808;2024-01-16T16:14:56;0.40;99.90
43227;DHT22;28839;52.404;9.808;2024-01-16T16:21:51;0.30;99.90
43227;DHT22;28839;52.404;9.808;2024-01-16T16:28:45;0.30;99.90
43227;DHT22;28839;52.404;9.808;2024-01-16T16:35:39;0.30;99.90
43227;DHT22;28839;52.404;9.808;2024-01-16T16:42:35;0.30;99.90
43227;DHT22;28839;52.404;9.808;2024-01-16T16:49:29;0.40;99.90
43227;DHT22;28839;52.404;9.808;2024-01-16T16:56:23;0.40;99.90
43227;DHT22;28839;52.404;9.808;2024-01-16T17:03:18;0.40;99.90
43227;DHT22;28839;52.404;9.808;2024-01-16T17:10:12;0.50;99.90
43227;DHT22;28839;52.404;9.808;2024-01-16T17:17:06;0.50;99.90
43227;DHT22;28839;52.404;9.808;2024-01-16T17:24:01;0.50;99.90
43227;DHT22;28839;52.404;9.808;2024-01-16T17:30:56;0.60;99.90
43227;DHT22;28839;52.404;9.808;2024-01-16T17:37:51;0.60;99.90
43227;DHT22;28839;52.404;9.808;2024-01-16T17:44:49;0.60;99.90
43227;DHT22;28839;52.404;9.808;2024-01-16T17:51:45;0.70;99.90
43227;DHT22;28839;52.404;9.808;2024-01-16T17:58:39;0.60;99.90
43227;DHT22;28839;52.404;9.808;2024-01-16T18:05:36;0.60;99.90
43227;DHT22;28839;52.404;9.808;2024-01-16T18:12:30;0.50;99.90
43227;DHT22;28839;52.404;9.808;2024-01-16T18:19:25;0.60;99.90
43227;DHT22;28839;52.404;9.808;2024-01-16T18:26:20;0.50;99.90
43227;DHT22;28839;52.404;9.808;2024-01-16T18:33:14;0.50;99.90
43227;DHT22;28839;52.404;9.808;2024-01-16T18:40:09;0.50;99.90
43227;DHT22;28839;52.404;9.808;2024-01-16T18:47:05;0.50;99.90
43227;DHT22;28839;52.404;9.808;2024-01-16T18:53:59;0.40;99.90
43227;DHT22;28839;52.404;9.808;2024-01-16T19:00:53;0.30;99.90
43227;DHT22;28839;52.404;9.808;2024-01-16T19:07:50;0.30;99.90
43227;DHT22;28839;52.404;9.808;2024-01-16T19:14:44;0.20;99.90
43227;DHT22;28839;52.404;9.808;2024-01-16T19:21:38;0.10;99.90
43227;DHT22;28839;52.404;9.808;2024-01-16T19:28:33;0.00;99.90
43227;DHT22;28839;52.404;9.808;2024-01-16T19:35:27;-0.10;99.90
43227;DHT22;28839;52.404;9.808;2024-01-16T19:42:21;-0.20;99.90
43227;DHT22;28839;52.404;9.808;2024-01-16T19:49:17;-0.30;99.90
43227;DHT22;28839;52.404;9.808;2024-01-16T19:56:11;-0.30;99.90
43227;DHT22;28839;52.404;9.808;2024-01-16T20:03:04;-0.30;99.90
43227;DHT22;28839;52.404;9.808;2024-01-16T20:10:01;-0.40;99.90
43227;DHT22;28839;52.404;9.808;2024-01-16T20:16:55;-0.40;99.90
43227;DHT22;28839;52.404;9.808;2024-01-16T20:23:49;-0.50;99.90
43227;DHT22;28839;52.404;9.808;2024-01-16T20:30:44;-0.60;99.90
43227;DHT22;28839;52.404;9.808;2024-01-16T20:37:38;-0.50;99.90
43227;DHT22;28839;52.404;9.808;2024-01-16T20:44:32;-0.60;99.90
43227;DHT22;28839;52.404;9.808;2024-01-16T20:51:27;-0.70;99.90
43227;DHT22;28839;52.404;9.808;2024-01-16T20:58:24;-0.70;99.90
43227;DHT22;28839;52.404;9.808;2024-01-16T21:05:17;-0.80;99.90
43227;DHT22;28839;52.404;9.808;2024-01-16T21:12:12;-0.90;99.90
43227;DHT22;28839;52.404;9.808;2024-01-16T21:19:06;-0.90;99.90
43227;DHT22;28839;52.404;9.808;2024-01-16T21:26:00;-0.90;99.90
43227;DHT22;28839;52.404;9.808;2024-01-16T21:32:55;-1.00;99.90
43227;DHT22;28839;52.404;9.808;2024-01-16T21:39:49;-1.00;99.90
43227;DHT22;28839;52.404;9.808;2024-01-16T21:46:42;-1.10;99.90
43227;DHT22;28839;52.404;9.808;2024-01-16T21:53:37;-1.10;99.90
43227;DHT22;28839;52.404;9.808;2024-01-16T22:00:31;-1.10;99.90
43227;DHT22;28839;52.404;9.808;2024-01-16T22:07:25;-1.10;99.90
43227;DHT22;28839;52.404;9.808;2024-01-16T22:14:21;-1.10;99.90
43227;DHT22;28839;52.404;9.808;2024-01-16T22:21:15;-1.20;99.90
43227;DHT22;28839;52.404;9.808;2024-01-16T22:28:09;-1.30;99.90
43227;DHT22;28839;52.404;9.808;2024-01-16T22:35:07;-1.20;99.90
43227;DHT22;28839;52.404;9.808;2024-01-16T22:42:00;-1.30;99.90
43227;DHT22;28839;52.404;9.808;2024-01-16T22:48:54;-1.30;99.90
43227;DHT22;28839;52.404;9.808;2024-01-16T22:55:49;-1.40;99.90
43227;DHT22;28839;52.404;9.808;2024-01-16T23:02:43;-1.40;99.90
43227;DHT22;28839;52.404;9.808;2024-01-16T23:09:39;-1.50;99.90
43227;DHT22;28839;52.404;9.808;2024-01-16T23:16:36;-1.40;99.90
43227;DHT22;28839;52.404;9.808;2024-01-16T23:23:30;-1.50;99.90
43227;DHT22;28839;52.404;9.808;2024-01-16T23:30:24;-1.60;99.90
43227;DHT22;28839;52.404;9.808;2024-01-16T23:37:19;-1.50;99.90
43227;DHT22;28839;52.404;9.808;2024-01-16T23:44:16;-1.50;99.90
43227;DHT22;28839;52.404;9.808;2024-01-16T23:51:10;-1.60;99.90
43227;DHT22;28839;52.404;9.808;2024-01-16T23:58:05;-1.70;99.90
